sensor_id;sensor_type;location;lat;lon;timestamp;temperature;humidity
11264;DHT22;5689;48.798;9.070;2023-06-10T00:02:26;17.40;95.30
11264;DHT22;5689;48.798;9.070;2023-06-10T00:04:54;17.40;95.50
11264;DHT22;5689;48.798;9.070;2023-06-10T00:07:23;17.30;95.90
11264;DHT22;5689;48.798;9.070;2023-06-10T00:09:51;17.30;96.20
11264;DHT22;5689;48.798;9.070;2023-06-10T00:12:19;17.40;96.00
11264;DHT22;5689;48.798;9.070;2023-06-10T00:14:48;17.30;96.20
11264;DHT22;5689;48.798;9.070;2023-06-10T00:17:19;17.00;96.80
11264;DHT22;5689;48.798;9.070;2023-06-10T00:19:50;17.00;97.20
11264;DHT22;5689;48.798;9.070;2023-06-10T00:22:18;17.10;97.40
11264;DHT22;5689;48.798;9.070;2023-06-10T00:24:46;17.00;97.40
11264;DHT22;5689;48.798;9.070;2023-06-10T00:27:14;17.00;97.70
11264;DHT22;5689;48.798;9.070;2023-06-10T00:29:42;17.00;97.90
11264;DHT22;5689;48.798;9.070;2023-06-10T00:32:10;17.00;97.70
11264;DHT22;5689;48.798;9.070;2023-06-10T00:34:39;17.00;98.20
11264;DHT22;5689;48.798;9.070;2023-06-10T00:37:07;17.00;98.60
11264;DHT22;5689;48.798;9.070;2023-06-10T00:39:35;17.10;98.40
11264;DHT22;5689;48.798;9.070;2023-06-10T00:42:04;16.80;99.10
11264;DHT22;5689;48.798;9.070;2023-06-10T00:44:33;16.80;99.40
11264;DHT22;5689;48.798;9.070;2023-06-10T00:47:03;16.70;99.90
11264;DHT22;5689;48.798;9.070;2023-06-10T00:49:31;16.60;99.90
11264;DHT22;5689;48.798;9.070;2023-06-10T00:52:01;16.60;99.90
11264;DHT22;5689;48.798;9.070;2023-06-10T00:54:30;16.60;99.90
11264;DHT22;5689;48.798;9.070;2023-06-10T00:57:00;16.60;99.90
11264;DHT22;5689;48.798;9.070;2023-06-10T00:59:29;16.60;99.90
11264;DHT22;5689;48.798;9.070;2023-06-10T01:01:59;16.60;99.90
11264;DHT22;5689;48.798;9.070;2023-06-10T01:04:29;16.60;99.90
11264;DHT22;5689;48.798;9.070;2023-06-10T01:07:08;16.50;99.90
11264;DHT22;5689;48.798;9.070;2023-06-10T01:09:45;16.30;99.90
11264;DHT22;5689;48.798;9.070;2023-06-10T01:12:19;16.30;99.90
11264;DHT22;5689;48.798;9.070;2023-06-10T01:14:49;16.30;99.90
11264;DHT22;5689;48.798;9.070;2023-06-10T01:17:18;16.40;99.90
11264;DHT22;5689;48.798;9.070;2023-06-10T01:19:57;16.30;99.90
11264;DHT22;5689;48.798;9.070;2023-06-10T01:22:27;16.40;99.90
11264;DHT22;5689;48.798;9.070;2023-06-10T01:24:59;16.30;99.90
11264;DHT22;5689;48.798;9.070;2023-06-10T01:27:30;16.40;99.90
11264;DHT22;5689;48.798;9.070;2023-06-10T01:30:07;16.40;99.90
11264;DHT22;5689;48.798;9.070;2023-06-10T01:32:39;16.30;99.90
11264;DHT22;5689;48.798;9.070;2023-06-10T01:35:08;16.20;99.90
11264;DHT22;5689;48.798;9.070;2023-06-10T01:37:38;16.10;99.90
11264;DHT22;5689;48.798;9.070;2023-06-10T01:40:08;16.10;99.90
11264;DHT22;5689;48.798;9.070;2023-06-10T01:42:37;16.10;99.90
11264;DHT22;5689;48.798;9.070;2023-06-10T01:45:06;16.00;99.90
11264;DHT22;5689;48.798;9.070;2023-06-10T01:47:34;15.90;99.90
11264;DHT22;5689;48.798;9.070;2023-06-10T01:50:02;15.90;99.90
11264;DHT22;5689;48.798;9.070;2023-06-10T01:52:30;16.00;99.90
11264;DHT22;5689;48.798;9.070;2023-06-10T01:55:01;15.90;99.90
11264;DHT22;5689;48.798;9.070;2023-06-10T01:57:29;15.80;99.90
11264;DHT22;5689;48.798;9.070;2023-06-10T01:59:57;15.80;99.90
11264;DHT22;5689;48.798;9.070;2023-06-10T02:02:25;15.90;99.90
11264;DHT22;5689;48.798;9.070;2023-06-10T02:04:53;16.10;99.90
11264;DHT22;5689;48.798;9.070;2023-06-10T02:07:21;16.00;99.90
11264;DHT22;5689;48.798;9.070;2023-06-10T02:09:49;15.90;99.90
11264;DHT22;5689;48.798;9.070;2023-06-10T02:12:19;15.80;99.90
11264;DHT22;5689;48.798;9.070;2023-06-10T02:14:47;15.70;99.90
11264;DHT22;5689;48.798;9.070;2023-06-10T02:17:17;15.60;99.90
11264;DHT22;5689;48.798;9.070;2023-06-10T02:19:45;15.60;99.90
11264;DHT22;5689;48.798;9.070;2023-06-10T02:22:20;15.50;99.90
11264;DHT22;5689;48.798;9.070;2023-06-10T02:24:49;15.40;99.90
11264;DHT22;5689;48.798;9.070;2023-06-10T02:27:20;15.30;99.90
11264;DHT22;5689;48.798;9.070;2023-06-10T02:29:48;15.50;99.90
11264;DHT22;5689;48.798;9.070;2023-06-10T02:32:16;15.50;99.90
11264;DHT22;5689;48.798;9.070;2023-06-10T02:34:44;15.40;99.90
11264;DHT22;5689;48.798;9.070;2023-06-10T02:37:13;15.40;99.90
11264;DHT22;5689;48.798;9.070;2023-06-10T02:39:41;15.30;99.90
11264;DHT22;5689;48.798;9.070;2023-06-10T02:42:11;15.20;99.90
11264;DHT22;5689;48.798;9.070;2023-06-10T02:44:40;15.30;99.90
11264;DHT22;5689;48.798;9.070;2023-06-10T02:47:12;15.50;99.90
11264;DHT22;5689;48.798;9.070;2023-06-10T02:49:41;15.40;99.90
11264;DHT22;5689;48.798;9.070;2023-06-10T02:52:09;15.30;99.90
11264;DHT22;5689;48.798;9.070;2023-06-10T02:54:38;15.30;99.90
11264;DHT22;5689;48.798;9.070;2023-06-10T02:57:08;15.10;99.90
11264;DHT22;5689;48.798;9.070;2023-06-10T02:59:37;15.00;99.90
11264;DHT22;5689;48.798;9.070;2023-06-10T03:02:06;15.00;99.90
11264;DHT22;5689;48.798;9.070;2023-06-10T03:04:42;15.00;99.90
11264;DHT22;5689;48.798;9.070;2023-06-10T03:07:13;15.00;99.90
11264;DHT22;5689;48.798;9.070;2023-06-10T03:09:41;15.00;99.90
11264;DHT22;5689;48.798;9.070;2023-06-10T03:12:12;15.00;99.90
11264;DHT22;5689;48.798;9.070;2023-06-10T03:14:44;15.00;99.90
11264;DHT22;5689;48.798;9.070;2023-06-10T03:17:14;14.90;99.90
11264;DHT22;5689;48.798;9.070;2023-06-10T03:19:43;14.80;99.90
11264;DHT22;5689;48.798;9.070;2023-06-10T03:22:13;14.80;99.90
11264;DHT22;5689;48.798;9.070;2023-06-10T03:25:01;14.90;99.90
11264;DHT22;5689;48.798;9.070;2023-06-10T03:27:30;15.10;99.90
11264;DHT22;5689;48.798;9.070;2023-06-10T03:30:02;15.20;99.90
11264;DHT22;5689;48.798;9.070;2023-06-10T03:32:32;15.10;99.90
11264;DHT22;5689;48.798;9.070;2023-06-10T03:35:00;15.00;99.90
11264;DHT22;5689;48.798;9.070;2023-06-10T03:37:30;14.80;99.90
11264;DHT22;5689;48.798;9.070;2023-06-10T03:39:58;14.80;99.90
11264;DHT22;5689;48.798;9.070;2023-06-10T03:42:26;14.80;99.90
11264;DHT22;5689;48.798;9.070;2023-06-10T03:44:54;14.80;99.90
11264;DHT22;5689;48.798;9.070;2023-06-10T03:47:23;14.80;99.90
11264;DHT22;5689;48.798;9.070;2023-06-10T03:49:52;14.80;99.90
11264;DHT22;5689;48.798;9.070;2023-06-10T03:52:21;14.80;99.90
11264;DHT22;5689;48.798;9.070;2023-06-10T03:54:49;14.80;99.90
11264;DHT22;5689;48.798;9.070;2023-06-10T03:57:17;14.80;99.90
11264;DHT22;5689;48.798;9.070;2023-06-10T03:59:45;14.80;99.90
11264;DHT22;5689;48.798;9.070;2023-06-10T04:02:13;14.90;99.90
11264;DHT22;5689;48.798;9.070;2023-06-10T04:04:42;15.00;99.90
11264;DHT22;5689;48.798;9.070;2023-06-10T04:07:11;15.00;99.90
11264;DHT22;5689;48.798;9.070;2023-06-10T04:09:40;15.00;99.90
11264;DHT22;5689;48.798;9.070;2023-06-10T04:12:09;15.00;99.90
11264;DHT22;5689;48.798;9.070;2023-06-10T04:14:37;15.10;99.90
11264;DHT22;5689;48.798;9.070;2023-06-10T04:17:09;15.40;99.90
11264;DHT22;5689;48.798;9.070;2023-06-10T04:19:37;15.50;99.90
11264;DHT22;5689;48.798;9.070;2023-06-10T04:22:06;15.60;99.90
11264;DHT22;5689;48.798;9.070;2023-06-10T04:24:35;15.60;99.90
11264;DHT22;5689;48.798;9.070;2023-06-10T04:27:04;15.70;99.90
11264;DHT22;5689;48.798;9.070;2023-06-10T04:29:32;15.70;99.90
11264;DHT22;5689;48.798;9.070;2023-06-10T04:32:01;16.00;99.90
11264;DHT22;5689;48.798;9.070;2023-06-10T04:34:30;15.90;99.90
11264;DHT22;5689;48.798;9.070;2023-06-10T04:36:59;15.80;99.90
11264;DHT22;5689;48.798;9.070;2023-06-10T04:39:27;15.90;99.90
11264;DHT22;5689;48.798;9.070;2023-06-10T04:41:58;16.00;99.90
11264;DHT22;5689;48.798;9.070;2023-06-10T04:44:27;16.10;99.90
11264;DHT22;5689;48.798;9.070;2023-06-10T04:46:55;16.20;99.90
11264;DHT22;5689;48.798;9.070;2023-06-10T04:49:23;16.40;99.90
11264;DHT22;5689;48.798;9.070;2023-06-10T04:51:51;16.50;99.90
11264;DHT22;5689;48.798;9.070;2023-06-10T04:54:19;16.50;99.90
11264;DHT22;5689;48.798;9.070;2023-06-10T04:56:47;16.60;99.90
11264;DHT22;5689;48.798;9.070;2023-06-10T04:59:17;16.70;99.90
11264;DHT22;5689;48.798;9.070;2023-06-10T05:01:45;17.00;99.90
11264;DHT22;5689;48.798;9.070;2023-06-10T05:04:13;17.30;99.90
11264;DHT22;5689;48.798;9.070;2023-06-10T05:06:41;17.40;99.90
11264;DHT22;5689;48.798;9.070;2023-06-10T05:09:09;17.40;99.90
11264;DHT22;5689;48.798;9.070;2023-06-10T05:11:37;17.50;99.90
11264;DHT22;5689;48.798;9.070;2023-06-10T05:14:05;17.70;99.90
11264;DHT22;5689;48.798;9.070;2023-06-10T05:16:34;17.90;99.90
11264;DHT22;5689;48.798;9.070;2023-06-10T05:19:02;18.10;99.90
11264;DHT22;5689;48.798;9.070;2023-06-10T05:21:32;18.30;99.90
11264;DHT22;5689;48.798;9.070;2023-06-10T05:24:00;18.50;99.90
11264;DHT22;5689;48.798;9.070;2023-06-10T05:26:28;18.60;99.90
11264;DHT22;5689;48.798;9.070;2023-06-10T05:28:58;19.00;99.90
11264;DHT22;5689;48.798;9.070;2023-06-10T05:31:26;19.70;99.90
11264;DHT22;5689;48.798;9.070;2023-06-10T05:33:55;20.40;99.90
11264;DHT22;5689;48.798;9.070;2023-06-10T05:36:24;20.20;99.90
11264;DHT22;5689;48.798;9.070;2023-06-10T05:38:52;20.20;99.90
11264;DHT22;5689;48.798;9.070;2023-06-10T05:41:20;20.40;99.90
11264;DHT22;5689;48.798;9.070;2023-06-10T05:43:48;20.30;99.90
11264;DHT22;5689;48.798;9.070;2023-06-10T05:46:16;20.30;99.90
11264;DHT22;5689;48.798;9.070;2023-06-10T05:48:44;20.60;99.90
11264;DHT22;5689;48.798;9.070;2023-06-10T05:51:14;20.70;99.90
11264;DHT22;5689;48.798;9.070;2023-06-10T05:53:42;20.50;99.90
11264;DHT22;5689;48.798;9.070;2023-06-10T05:56:10;20.50;99.90
11264;DHT22;5689;48.798;9.070;2023-06-10T05:58:38;20.90;99.90
11264;DHT22;5689;48.798;9.070;2023-06-10T06:01:06;21.50;99.90
11264;DHT22;5689;48.798;9.070;2023-06-10T06:03:34;22.10;99.80
11264;DHT22;5689;48.798;9.070;2023-06-10T06:06:02;22.30;99.10
11264;DHT22;5689;48.798;9.070;2023-06-10T06:08:32;22.30;98.80
11264;DHT22;5689;48.798;9.070;2023-06-10T06:11:00;22.30;98.80
11264;DHT22;5689;48.798;9.070;2023-06-10T06:13:28;22.10;98.90
11264;DHT22;5689;48.798;9.070;2023-06-10T06:15:56;22.30;98.60
11264;DHT22;5689;48.798;9.070;2023-06-10T06:18:24;23.00;97.70
11264;DHT22;5689;48.798;9.070;2023-06-10T06:20:52;23.40;96.60
11264;DHT22;5689;48.798;9.070;2023-06-10T06:23:20;23.40;96.40
11264;DHT22;5689;48.798;9.070;2023-06-10T06:25:50;23.70;96.10
11264;DHT22;5689;48.798;9.070;2023-06-10T06:28:18;23.80;95.90
11264;DHT22;5689;48.798;9.070;2023-06-10T06:30:47;23.70;95.30
11264;DHT22;5689;48.798;9.070;2023-06-10T06:33:15;23.80;94.60
11264;DHT22;5689;48.798;9.070;2023-06-10T06:35:43;23.80;95.30
11264;DHT22;5689;48.798;9.070;2023-06-10T06:38:11;24.20;94.00
11264;DHT22;5689;48.798;9.070;2023-06-10T06:40:40;23.70;95.50
11264;DHT22;5689;48.798;9.070;2023-06-10T06:43:09;24.50;94.40
11264;DHT22;5689;48.798;9.070;2023-06-10T06:46:02;25.10;93.00
11264;DHT22;5689;48.798;9.070;2023-06-10T06:48:30;25.40;92.70
11264;DHT22;5689;48.798;9.070;2023-06-10T06:50:58;25.90;91.30
11264;DHT22;5689;48.798;9.070;2023-06-10T06:53:26;26.20;90.40
11264;DHT22;5689;48.798;9.070;2023-06-10T06:55:55;26.80;88.40
11264;DHT22;5689;48.798;9.070;2023-06-10T06:58:25;26.90;86.80
11264;DHT22;5689;48.798;9.070;2023-06-10T07:00:53;27.00;87.60
11264;DHT22;5689;48.798;9.070;2023-06-10T07:03:22;27.10;87.10
11264;DHT22;5689;48.798;9.070;2023-06-10T07:05:50;27.40;86.20
11264;DHT22;5689;48.798;9.070;2023-06-10T07:08:18;27.10;84.90
11264;DHT22;5689;48.798;9.070;2023-06-10T07:10:46;27.30;85.10
11264;DHT22;5689;48.798;9.070;2023-06-10T07:13:15;27.00;84.10
11264;DHT22;5689;48.798;9.070;2023-06-10T07:15:45;26.80;84.00
11264;DHT22;5689;48.798;9.070;2023-06-10T07:18:14;26.40;83.80
11264;DHT22;5689;48.798;9.070;2023-06-10T07:20:42;26.90;83.30
11264;DHT22;5689;48.798;9.070;2023-06-10T07:23:11;27.30;83.70
11264;DHT22;5689;48.798;9.070;2023-06-10T07:25:44;27.50;81.80
11264;DHT22;5689;48.798;9.070;2023-06-10T07:28:13;28.00;79.20
11264;DHT22;5689;48.798;9.070;2023-06-10T07:30:41;28.10;79.50
11264;DHT22;5689;48.798;9.070;2023-06-10T07:33:10;29.00;79.10
11264;DHT22;5689;48.798;9.070;2023-06-10T07:35:38;29.40;77.10
11264;DHT22;5689;48.798;9.070;2023-06-10T07:38:06;29.60;74.90
11264;DHT22;5689;48.798;9.070;2023-06-10T07:40:34;29.50;73.80
11264;DHT22;5689;48.798;9.070;2023-06-10T07:43:02;29.50;75.10
11264;DHT22;5689;48.798;9.070;2023-06-10T07:45:30;28.20;76.30
11264;DHT22;5689;48.798;9.070;2023-06-10T07:47:58;28.70;77.60
11264;DHT22;5689;48.798;9.070;2023-06-10T07:50:27;29.80;76.20
11264;DHT22;5689;48.798;9.070;2023-06-10T07:52:55;30.10;74.00
11264;DHT22;5689;48.798;9.070;2023-06-10T07:55:23;30.70;71.60
11264;DHT22;5689;48.798;9.070;2023-06-10T07:57:55;30.20;73.10
11264;DHT22;5689;48.798;9.070;2023-06-10T08:00:23;31.00;71.40
11264;DHT22;5689;48.798;9.070;2023-06-10T08:02:51;30.30;70.50
11264;DHT22;5689;48.798;9.070;2023-06-10T08:05:19;28.60;74.60
11264;DHT22;5689;48.798;9.070;2023-06-10T08:07:49;28.50;74.20
11264;DHT22;5689;48.798;9.070;2023-06-10T08:10:17;27.60;76.30
11264;DHT22;5689;48.798;9.070;2023-06-10T08:12:45;28.40;76.60
11264;DHT22;5689;48.798;9.070;2023-06-10T08:15:13;29.00;75.00
11264;DHT22;5689;48.798;9.070;2023-06-10T08:17:41;29.10;73.90
11264;DHT22;5689;48.798;9.070;2023-06-10T08:20:09;30.70;73.10
11264;DHT22;5689;48.798;9.070;2023-06-10T08:22:38;31.60;69.80
11264;DHT22;5689;48.798;9.070;2023-06-10T08:25:08;30.80;68.80
11264;DHT22;5689;48.798;9.070;2023-06-10T08:27:39;29.90;70.80
11264;DHT22;5689;48.798;9.070;2023-06-10T08:30:08;28.60;73.00
11264;DHT22;5689;48.798;9.070;2023-06-10T08:32:37;28.80;73.90
11264;DHT22;5689;48.798;9.070;2023-06-10T08:35:05;28.90;73.90
11264;DHT22;5689;48.798;9.070;2023-06-10T08:37:33;29.40;71.60
11264;DHT22;5689;48.798;9.070;2023-06-10T08:40:02;29.20;73.00
11264;DHT22;5689;48.798;9.070;2023-06-10T08:42:36;30.60;70.40
11264;DHT22;5689;48.798;9.070;2023-06-10T08:45:07;30.80;70.30
11264;DHT22;5689;48.798;9.070;2023-06-10T08:47:50;31.40;67.80
11264;DHT22;5689;48.798;9.070;2023-06-10T08:50:19;32.60;67.00
11264;DHT22;5689;48.798;9.070;2023-06-10T08:52:49;32.60;66.00
11264;DHT22;5689;48.798;9.070;2023-06-10T08:55:26;31.30;67.90
11264;DHT22;5689;48.798;9.070;2023-06-10T08:57:59;32.60;66.90
11264;DHT22;5689;48.798;9.070;2023-06-10T09:00:28;32.90;66.90
11264;DHT22;5689;48.798;9.070;2023-06-10T09:02:56;31.80;67.50
11264;DHT22;5689;48.798;9.070;2023-06-10T09:05:27;32.10;68.20
11264;DHT22;5689;48.798;9.070;2023-06-10T09:07:59;31.00;67.80
11264;DHT22;5689;48.798;9.070;2023-06-10T09:10:31;32.00;67.10
11264;DHT22;5689;48.798;9.070;2023-06-10T09:13:01;33.00;64.50
11264;DHT22;5689;48.798;9.070;2023-06-10T09:15:29;32.30;66.40
11264;DHT22;5689;48.798;9.070;2023-06-10T09:17:58;32.70;65.50
11264;DHT22;5689;48.798;9.070;2023-06-10T09:20:26;33.30;64.30
11264;DHT22;5689;48.798;9.070;2023-06-10T09:22:55;31.90;66.40
11264;DHT22;5689;48.798;9.070;2023-06-10T09:25:34;30.70;67.80
11264;DHT22;5689;48.798;9.070;2023-06-10T09:28:13;30.60;68.10
11264;DHT22;5689;48.798;9.070;2023-06-10T09:30:41;30.80;68.80
11264;DHT22;5689;48.798;9.070;2023-06-10T09:33:11;30.40;68.50
11264;DHT22;5689;48.798;9.070;2023-06-10T09:35:45;29.40;70.80
11264;DHT22;5689;48.798;9.070;2023-06-10T09:38:14;28.80;72.30
11264;DHT22;5689;48.798;9.070;2023-06-10T09:40:50;28.70;71.40
11264;DHT22;5689;48.798;9.070;2023-06-10T09:43:20;29.90;70.10
11264;DHT22;5689;48.798;9.070;2023-06-10T09:45:48;31.10;67.60
11264;DHT22;5689;48.798;9.070;2023-06-10T09:48:23;29.70;70.00
11264;DHT22;5689;48.798;9.070;2023-06-10T09:50:53;28.80;71.70
11264;DHT22;5689;48.798;9.070;2023-06-10T09:53:21;28.80;71.30
11264;DHT22;5689;48.798;9.070;2023-06-10T09:55:49;28.50;72.30
11264;DHT22;5689;48.798;9.070;2023-06-10T09:58:17;28.10;72.20
11264;DHT22;5689;48.798;9.070;2023-06-10T10:00:52;28.20;71.00
11264;DHT22;5689;48.798;9.070;2023-06-10T10:03:22;27.70;73.10
11264;DHT22;5689;48.798;9.070;2023-06-10T10:05:58;28.70;71.40
11264;DHT22;5689;48.798;9.070;2023-06-10T10:08:27;28.30;71.70
11264;DHT22;5689;48.798;9.070;2023-06-10T10:10:57;29.10;70.60
11264;DHT22;5689;48.798;9.070;2023-06-10T10:13:26;28.80;70.00
11264;DHT22;5689;48.798;9.070;2023-06-10T10:16:00;27.80;73.40
11264;DHT22;5689;48.798;9.070;2023-06-10T10:18:29;28.30;73.40
11264;DHT22;5689;48.798;9.070;2023-06-10T10:21:01;29.50;71.30
11264;DHT22;5689;48.798;9.070;2023-06-10T10:23:36;31.10;66.90
11264;DHT22;5689;48.798;9.070;2023-06-10T10:26:10;31.30;65.60
11264;DHT22;5689;48.798;9.070;2023-06-10T10:28:41;30.90;67.50
11264;DHT22;5689;48.798;9.070;2023-06-10T10:31:18;31.70;66.00
11264;DHT22;5689;48.798;9.070;2023-06-10T10:33:53;32.70;60.70
11264;DHT22;5689;48.798;9.070;2023-06-10T10:36:23;34.00;58.50
11264;DHT22;5689;48.798;9.070;2023-06-10T10:38:51;34.00;61.80
11264;DHT22;5689;48.798;9.070;2023-06-10T10:41:20;34.90;59.80
11264;DHT22;5689;48.798;9.070;2023-06-10T10:43:50;35.80;57.90
11264;DHT22;5689;48.798;9.070;2023-06-10T10:46:20;38.00;55.00
11264;DHT22;5689;48.798;9.070;2023-06-10T10:48:52;36.80;55.20
11264;DHT22;5689;48.798;9.070;2023-06-10T10:51:20;36.00;56.90
11264;DHT22;5689;48.798;9.070;2023-06-10T10:54:12;33.50;58.10
11264;DHT22;5689;48.798;9.070;2023-06-10T10:57:15;33.90;59.30
11264;DHT22;5689;48.798;9.070;2023-06-10T10:59:53;34.40;58.20
11264;DHT22;5689;48.798;9.070;2023-06-10T11:02:35;35.90;56.90
11264;DHT22;5689;48.798;9.070;2023-06-10T11:05:06;34.40;57.00
11264;DHT22;5689;48.798;9.070;2023-06-10T11:07:35;35.40;57.60
11264;DHT22;5689;48.798;9.070;2023-06-10T11:10:07;34.20;57.90
11264;DHT22;5689;48.798;9.070;2023-06-10T11:12:49;34.20;57.70
11264;DHT22;5689;48.798;9.070;2023-06-10T11:15:23;33.60;59.20
11264;DHT22;5689;48.798;9.070;2023-06-10T11:18:09;34.40;57.70
11264;DHT22;5689;48.798;9.070;2023-06-10T11:20:58;35.70;56.00
11264;DHT22;5689;48.798;9.070;2023-06-10T11:23:40;34.20;58.10
11264;DHT22;5689;48.798;9.070;2023-06-10T11:26:19;34.80;57.40
11264;DHT22;5689;48.798;9.070;2023-06-10T11:29:06;33.40;58.80
11264;DHT22;5689;48.798;9.070;2023-06-10T11:31:41;34.70;57.20
11264;DHT22;5689;48.798;9.070;2023-06-10T11:34:11;36.20;55.00
11264;DHT22;5689;48.798;9.070;2023-06-10T11:36:41;37.60;54.80
11264;DHT22;5689;48.798;9.070;2023-06-10T11:39:12;35.90;54.70
11264;DHT22;5689;48.798;9.070;2023-06-10T11:41:40;35.50;54.20
11264;DHT22;5689;48.798;9.070;2023-06-10T11:44:10;35.10;55.50
11264;DHT22;5689;48.798;9.070;2023-06-10T11:46:38;35.00;54.70
11264;DHT22;5689;48.798;9.070;2023-06-10T11:49:07;33.20;56.60
11264;DHT22;5689;48.798;9.070;2023-06-10T11:51:37;31.20;60.70
11264;DHT22;5689;48.798;9.070;2023-06-10T11:54:08;32.00;59.60
11264;DHT22;5689;48.798;9.070;2023-06-10T11:56:36;31.20;59.50
11264;DHT22;5689;48.798;9.070;2023-06-10T11:59:05;34.50;56.90
11264;DHT22;5689;48.798;9.070;2023-06-10T12:01:36;35.80;54.90
11264;DHT22;5689;48.798;9.070;2023-06-10T12:04:07;35.10;52.80
11264;DHT22;5689;48.798;9.070;2023-06-10T12:06:41;34.20;54.40
11264;DHT22;5689;48.798;9.070;2023-06-10T12:09:17;34.10;54.30
11264;DHT22;5689;48.798;9.070;2023-06-10T12:11:50;34.40;55.10
11264;DHT22;5689;48.798;9.070;2023-06-10T12:14:50;34.60;54.60
11264;DHT22;5689;48.798;9.070;2023-06-10T12:17:20;36.60;52.50
11264;DHT22;5689;48.798;9.070;2023-06-10T12:19:49;34.80;53.00
11264;DHT22;5689;48.798;9.070;2023-06-10T12:22:19;36.30;52.10
11264;DHT22;5689;48.798;9.070;2023-06-10T12:24:58;35.50;52.80
11264;DHT22;5689;48.798;9.070;2023-06-10T12:27:28;34.80;53.60
11264;DHT22;5689;48.798;9.070;2023-06-10T12:29:57;33.40;55.60
11264;DHT22;5689;48.798;9.070;2023-06-10T12:32:40;34.20;56.00
11264;DHT22;5689;48.798;9.070;2023-06-10T12:35:10;36.10;53.00
11264;DHT22;5689;48.798;9.070;2023-06-10T12:37:40;37.70;51.50
11264;DHT22;5689;48.798;9.070;2023-06-10T12:40:10;38.90;51.10
11264;DHT22;5689;48.798;9.070;2023-06-10T12:42:38;41.50;47.70
11264;DHT22;5689;48.798;9.070;2023-06-10T12:45:07;41.00;47.20
11264;DHT22;5689;48.798;9.070;2023-06-10T12:47:37;40.80;46.20
11264;DHT22;5689;48.798;9.070;2023-06-10T12:50:07;37.40;49.80
11264;DHT22;5689;48.798;9.070;2023-06-10T12:52:35;40.10;48.00
11264;DHT22;5689;48.798;9.070;2023-06-10T12:55:05;39.40;46.60
11264;DHT22;5689;48.798;9.070;2023-06-10T12:57:33;36.30;50.00
11264;DHT22;5689;48.798;9.070;2023-06-10T13:00:01;35.10;51.60
11264;DHT22;5689;48.798;9.070;2023-06-10T13:02:35;32.90;54.50
11264;DHT22;5689;48.798;9.070;2023-06-10T13:05:03;30.30;58.30
11264;DHT22;5689;48.798;9.070;2023-06-10T13:07:31;30.40;59.00
11264;DHT22;5689;48.798;9.070;2023-06-10T13:09:59;28.80;60.20
11264;DHT22;5689;48.798;9.070;2023-06-10T13:12:29;29.70;60.00
11264;DHT22;5689;48.798;9.070;2023-06-10T13:15:05;29.80;59.10
11264;DHT22;5689;48.798;9.070;2023-06-10T13:17:33;29.30;61.50
11264;DHT22;5689;48.798;9.070;2023-06-10T13:20:02;29.50;60.50
11264;DHT22;5689;48.798;9.070;2023-06-10T13:22:31;30.70;60.00
11264;DHT22;5689;48.798;9.070;2023-06-10T13:24:59;34.60;54.20
11264;DHT22;5689;48.798;9.070;2023-06-10T13:27:29;35.70;51.60
11264;DHT22;5689;48.798;9.070;2023-06-10T13:29:57;36.40;51.50
11264;DHT22;5689;48.798;9.070;2023-06-10T13:32:25;35.40;52.80
11264;DHT22;5689;48.798;9.070;2023-06-10T13:34:53;35.70;52.00
11264;DHT22;5689;48.798;9.070;2023-06-10T13:37:21;33.70;54.60
11264;DHT22;5689;48.798;9.070;2023-06-10T13:39:49;33.10;55.10
11264;DHT22;5689;48.798;9.070;2023-06-10T13:42:18;34.80;53.80
11264;DHT22;5689;48.798;9.070;2023-06-10T13:44:48;37.90;50.10
11264;DHT22;5689;48.798;9.070;2023-06-10T13:47:16;39.40;48.00
11264;DHT22;5689;48.798;9.070;2023-06-10T13:49:44;39.10;47.70
11264;DHT22;5689;48.798;9.070;2023-06-10T13:52:13;36.40;51.40
11264;DHT22;5689;48.798;9.070;2023-06-10T13:54:41;36.30;51.10
11264;DHT22;5689;48.798;9.070;2023-06-10T13:57:09;36.00;50.70
11264;DHT22;5689;48.798;9.070;2023-06-10T13:59:37;35.70;50.80
11264;DHT22;5689;48.798;9.070;2023-06-10T14:02:06;35.60;51.70
11264;DHT22;5689;48.798;9.070;2023-06-10T14:04:35;35.40;51.90
11264;DHT22;5689;48.798;9.070;2023-06-10T14:07:03;36.30;50.40
11264;DHT22;5689;48.798;9.070;2023-06-10T14:09:31;37.40;49.10
11264;DHT22;5689;48.798;9.070;2023-06-10T14:11:59;39.00;47.00
11264;DHT22;5689;48.798;9.070;2023-06-10T14:14:29;39.60;47.20
11264;DHT22;5689;48.798;9.070;2023-06-10T14:16:58;39.20;46.10
11264;DHT22;5689;48.798;9.070;2023-06-10T14:19:27;38.60;47.90
11264;DHT22;5689;48.798;9.070;2023-06-10T14:21:55;38.80;47.50
11264;DHT22;5689;48.798;9.070;2023-06-10T14:24:23;37.20;48.70
11264;DHT22;5689;48.798;9.070;2023-06-10T14:26:51;36.10;51.20
11264;DHT22;5689;48.798;9.070;2023-06-10T14:29:19;37.90;48.30
11264;DHT22;5689;48.798;9.070;2023-06-10T14:31:47;36.70;49.00
11264;DHT22;5689;48.798;9.070;2023-06-10T14:34:15;34.40;50.40
11264;DHT22;5689;48.798;9.070;2023-06-10T14:36:45;35.20;50.80
11264;DHT22;5689;48.798;9.070;2023-06-10T14:39:13;37.70;47.90
11264;DHT22;5689;48.798;9.070;2023-06-10T14:41:41;38.50;46.80
11264;DHT22;5689;48.798;9.070;2023-06-10T14:44:09;36.20;49.60
11264;DHT22;5689;48.798;9.070;2023-06-10T14:46:37;37.90;48.50
11264;DHT22;5689;48.798;9.070;2023-06-10T14:49:05;37.10;48.20
11264;DHT22;5689;48.798;9.070;2023-06-10T14:51:33;32.70;52.60
11264;DHT22;5689;48.798;9.070;2023-06-10T14:54:03;32.40;54.60
11264;DHT22;5689;48.798;9.070;2023-06-10T14:56:31;33.60;54.10
11264;DHT22;5689;48.798;9.070;2023-06-10T14:58:59;35.60;51.40
11264;DHT22;5689;48.798;9.070;2023-06-10T15:01:27;35.60;50.00
11264;DHT22;5689;48.798;9.070;2023-06-10T15:03:55;33.50;53.30
11264;DHT22;5689;48.798;9.070;2023-06-10T15:06:23;33.10;54.00
11264;DHT22;5689;48.798;9.070;2023-06-10T15:08:51;30.90;56.10
11264;DHT22;5689;48.798;9.070;2023-06-10T15:11:21;29.50;59.10
11264;DHT22;5689;48.798;9.070;2023-06-10T15:13:49;29.30;59.80
11264;DHT22;5689;48.798;9.070;2023-06-10T15:16:17;30.00;58.30
11264;DHT22;5689;48.798;9.070;2023-06-10T15:18:45;29.50;58.10
11264;DHT22;5689;48.798;9.070;2023-06-10T15:21:13;30.10;58.10
11264;DHT22;5689;48.798;9.070;2023-06-10T15:23:41;29.80;57.20
11264;DHT22;5689;48.798;9.070;2023-06-10T15:26:09;30.00;59.10
11264;DHT22;5689;48.798;9.070;2023-06-10T15:28:39;30.80;58.60
11264;DHT22;5689;48.798;9.070;2023-06-10T15:31:07;29.70;59.80
11264;DHT22;5689;48.798;9.070;2023-06-10T15:33:35;29.70;61.00
11264;DHT22;5689;48.798;9.070;2023-06-10T15:36:03;29.60;59.60
11264;DHT22;5689;48.798;9.070;2023-06-10T15:38:32;29.00;61.30
11264;DHT22;5689;48.798;9.070;2023-06-10T15:41:00;29.30;59.80
11264;DHT22;5689;48.798;9.070;2023-06-10T15:43:28;29.30;59.50
11264;DHT22;5689;48.798;9.070;2023-06-10T15:45:58;29.60;58.80
11264;DHT22;5689;48.798;9.070;2023-06-10T15:48:25;29.40;58.80
11264;DHT22;5689;48.798;9.070;2023-06-10T15:50:53;30.10;58.10
11264;DHT22;5689;48.798;9.070;2023-06-10T15:53:21;30.30;58.10
11264;DHT22;5689;48.798;9.070;2023-06-10T15:55:49;30.30;58.60
11264;DHT22;5689;48.798;9.070;2023-06-10T15:58:18;30.40;57.50
11264;DHT22;5689;48.798;9.070;2023-06-10T16:00:46;30.60;58.10
11264;DHT22;5689;48.798;9.070;2023-06-10T16:03:15;30.30;58.50